Time,TemperatureF,DewpointF,PressureIn,WindDirection,WindDirectionDegrees,WindSpeedMPH,WindSpeedGustMPH,Humidity,HourlyPrecipIn,Conditions,Clouds,dailyrainin,SoftwareType,DateUTC
2013-03-25 00:00:00,70.1,65.4,29.57,West,270,0.0,0.0,85,0.00,,---,0.00,VWS V14.00,2013-03-25 04:00:00,
2013-03-25 00:05:00,70.1,65.4,29.58,NW,315,0.0,0.0,85,0.00,,---,0.00,VWS V14.00,2013-03-25 04:05:00,
2013-03-25 00:10:00,69.9,65.2,29.57,NW,315,0.0,0.0,85,0.00,,---,0.00,VWS V14.00,2013-03-25 04:10:00,
2013-03-25 00:15:00,69.6,65.2,29.58,WNW,292,0.0,0.0,86,0.00,,---,0.00,VWS V14.00,2013-03-25 04:15:00,
2013-03-25 00:20:00,69.4,65.0,29.58,NW,315,0.0,0.0,86,0.00,,---,0.00,VWS V14.00,2013-03-25 04:20:00,
2013-03-25 00:25:00,69.4,65.0,29.58,NW,315,0.0,0.0,86,0.00,,---,0.00,VWS V14.00,2013-03-25 04:25:00,
2013-03-25 00:30:00,69.2,64.8,29.58,West,270,0.0,0.0,86,0.00,,---,0.00,VWS V14.00,2013-03-25 04:30:00,
2013-03-25 00:35:00,69.0,64.6,29.58,WNW,292,0.0,0.0,86,0.00,,---,0.00,VWS V14.00,2013-03-25 04:35:00,
2013-03-25 00:40:00,69.0,64.6,29.58,WNW,292,2.0,2.0,86,0.00,,---,0.00,VWS V14.00,2013-03-25 04:40:00,
2013-03-25 00:45:00,69.0,65.0,29.58,West,270,1.1,1.1,87,0.00,,---,0.00,VWS V14.00,2013-03-25 04:45:00,
2013-03-25 00:50:00,68.9,64.9,29.58,West,270,0.0,0.0,87,0.00,,---,0.00,VWS V14.00,2013-03-25 04:50:00,
2013-03-25 00:55:00,68.9,64.9,29.59,WNW,292,2.0,2.0,87,0.00,,---,0.00,VWS V14.00,2013-03-25 04:55:00,
2013-03-25 01:00:00,68.7,64.7,29.58,WNW,292,0.0,0.0,87,0.00,,---,0.00,VWS V14.00,2013-03-25 05:00:00,
2013-03-25 01:05:00,68.7,64.7,29.58,West,270,0.0,0.0,87,0.00,,---,0.00,VWS V14.00,2013-03-25 05:05:00,
2013-03-25 01:10:00,68.7,64.7,29.58,West,270,0.8,0.8,87,0.00,,---,0.00,VWS V14.00,2013-03-25 05:10:00,
2013-03-25 01:15:00,68.5,64.5,29.58,WNW,292,0.0,0.0,87,0.00,,---,0.00,VWS V14.00,2013-03-25 05:15:00,
2013-03-25 01:20:00,68.5,64.5,29.59,WNW,292,3.5,3.5,87,0.00,,---,0.00,VWS V14.00,2013-03-25 05:20:00,
2013-03-25 01:25:00,68.5,64.5,29.59,WNW,292,2.6,2.6,87,0.00,,---,0.00,VWS V14.00,2013-03-25 05:25:00,
2013-03-25 01:30:00,68.5,64.8,29.58,NW,315,2.4,2.4,88,0.00,,---,0.00,VWS V14.00,2013-03-25 05:30:00,
2013-03-25 01:35:00,68.5,64.8,29.58,NW,315,1.3,1.3,88,0.00,,---,0.00,VWS V14.00,2013-03-25 05:35:00,
2013-03-25 01:40:00,68.5,64.8,29.59,WNW,292,1.1,1.1,88,0.00,,---,0.00,VWS V14.00,2013-03-25 05:40:00,
2013-03-25 01:45:00,68.5,64.8,29.58,WNW,292,1.1,1.1,88,0.00,,---,0.00,VWS V14.00,2013-03-25 05:45:00,
2013-03-25 01:50:00,68.5,64.8,29.59,West,270,2.0,2.0,88,0.00,,---,0.00,VWS V14.00,2013-03-25 05:50:00,
2013-03-25 01:55:00,68.5,64.8,29.59,NW,315,0.0,0.0,88,0.00,,---,0.00,VWS V14.00,2013-03-25 05:55:00,
2013-03-25 02:00:00,68.3,64.6,29.59,NW,315,1.1,1.1,88,0.00,,---,0.00,VWS V14.00,2013-03-25 06:00:00,
2013-03-25 02:05:00,68.3,64.6,29.59,WNW,292,1.3,1.3,88,0.00,,---,0.00,VWS V14.00,2013-03-25 06:05:00,
2013-03-25 02:09:00,68.3,64.9,29.59,WNW,292,1.5,1.5,89,0.00,,---,0.00,VWS V14.00,2013-03-25 06:09:00,
2013-03-25 02:14:00,68.3,64.9,29.59,WNW,292,1.7,1.7,89,0.00,,---,0.00,VWS V14.00,2013-03-25 06:14:00,
2013-03-25 02:19:00,68.3,64.9,29.59,WNW,292,2.2,2.2,89,0.00,,---,0.00,VWS V14.00,2013-03-25 06:19:00,
2013-03-25 02:24:00,68.1,64.7,29.59,NW,315,1.7,1.7,89,0.00,,---,0.00,VWS V14.00,2013-03-25 06:24:00,
2013-03-25 02:29:00,68.1,64.4,29.60,NW,315,2.0,2.0,88,0.00,,---,0.00,VWS V14.00,2013-03-25 06:29:00,
2013-03-25 02:34:00,68.1,64.4,29.59,NW,315,2.6,2.6,88,0.00,,---,0.00,VWS V14.00,2013-03-25 06:34:00,
2013-03-25 02:39:00,68.1,64.1,29.60,NW,315,0.0,0.0,87,0.00,,---,0.00,VWS V14.00,2013-03-25 06:39:00,
2013-03-25 02:44:00,68.1,64.1,29.60,NW,315,2.4,2.4,87,0.00,,---,0.00,VWS V14.00,2013-03-25 06:44:00,
2013-03-25 02:49:00,67.8,63.8,29.60,NW,315,2.0,2.0,87,0.00,,---,0.00,VWS V14.00,2013-03-25 06:49:00,
2013-03-25 02:54:00,67.8,63.5,29.60,NNW,338,3.5,3.5,86,0.00,,---,0.00,VWS V14.00,2013-03-25 06:54:00,
2013-03-25 02:59:00,67.8,63.5,29.60,NNW,338,0.0,0.0,86,0.00,,---,0.00,VWS V14.00,2013-03-25 06:59:00,
2013-03-25 03:04:00,67.8,63.5,29.60,NNW,338,0.0,3.8,86,0.00,,---,0.00,VWS V14.00,2013-03-25 07:04:00,
2013-03-25 03:09:00,67.6,63.3,29.61,NW,315,0.8,2.4,86,0.00,,---,0.00,VWS V14.00,2013-03-25 07:09:00,
2013-03-25 03:14:00,67.6,63.3,29.61,NNW,338,1.5,1.5,86,0.00,,---,0.00,VWS V14.00,2013-03-25 07:14:00,
2013-03-25 03:19:00,67.2,62.5,29.61,NNW,338,2.6,2.6,85,0.00,,---,0.00,VWS V14.00,2013-03-25 07:19:00,
2013-03-25 03:24:00,67.2,62.5,29.61,NW,315,5.1,5.1,85,0.00,,---,0.00,VWS V14.00,2013-03-25 07:24:00,
2013-03-25 03:29:00,67.1,62.5,29.60,NNW,338,5.5,5.5,85,0.00,,---,0.00,VWS V14.00,2013-03-25 07:29:00,
2013-03-25 03:34:00,66.9,61.9,29.60,NNW,338,3.3,3.3,84,0.00,,---,0.00,VWS V14.00,2013-03-25 07:34:00,
2013-03-25 03:39:00,66.7,61.7,29.60,NW,315,4.9,4.9,84,0.00,,---,0.00,VWS V14.00,2013-03-25 07:39:00,
2013-03-25 03:44:00,66.3,61.3,29.60,NW,315,2.4,2.4,84,0.00,,---,0.00,VWS V14.00,2013-03-25 07:44:00,
2013-03-25 03:49:00,66.2,61.2,29.61,North,0,2.4,2.4,84,0.00,,---,0.00,VWS V14.00,2013-03-25 07:49:00,
2013-03-25 03:54:00,66.0,61.0,29.60,NW,315,3.5,3.5,84,0.00,,---,0.00,VWS V14.00,2013-03-25 07:54:00,
2013-03-25 03:59:00,65.8,60.8,29.60,NNW,338,0.0,0.0,84,0.00,,---,0.00,VWS V14.00,2013-03-25 07:59:00,
2013-03-25 04:04:00,65.6,60.6,29.60,NW,315,0.6,0.6,84,0.00,,---,0.00,VWS V14.00,2013-03-25 08:04:00,
2013-03-25 04:09:00,65.4,60.1,29.60,NNW,338,1.3,1.3,83,0.00,,---,0.00,VWS V14.00,2013-03-25 08:09:00,
2013-03-25 04:14:00,65.1,59.8,29.60,NNW,338,4.0,4.0,83,0.00,,---,0.00,VWS V14.00,2013-03-25 08:14:00,
2013-03-25 04:19:00,65.1,59.8,29.60,NNW,338,1.7,1.7,83,0.00,,---,0.00,VWS V14.00,2013-03-25 08:19:00,
2013-03-25 04:24:00,64.9,59.6,29.61,NW,315,0.0,0.0,83,0.00,,---,0.00,VWS V14.00,2013-03-25 08:24:00,
2013-03-25 04:29:00,64.9,59.6,29.60,WNW,292,2.0,2.0,83,0.00,,---,0.00,VWS V14.00,2013-03-25 08:29:00,
2013-03-25 04:34:00,64.5,59.2,29.60,WNW,292,0.0,0.0,83,0.00,,---,0.00,VWS V14.00,2013-03-25 08:34:00,
2013-03-25 04:39:00,64.5,59.2,29.61,NNW,338,2.0,2.0,83,0.00,,---,0.00,VWS V14.00,2013-03-25 08:39:00,
2013-03-25 04:44:00,64.2,58.9,29.61,NNW,338,0.0,0.0,83,0.00,,---,0.00,VWS V14.00,2013-03-25 08:44:00,
2013-03-25 04:49:00,64.2,58.9,29.60,WNW,292,0.0,0.0,83,0.00,,---,0.00,VWS V14.00,2013-03-25 08:49:00,
2013-03-25 04:54:00,64.0,58.1,29.61,NNW,338,3.1,3.1,81,0.00,,---,0.00,VWS V14.00,2013-03-25 08:54:00,
2013-03-25 04:59:00,63.8,57.5,29.60,NW,315,0.4,0.4,80,0.00,,---,0.00,VWS V14.00,2013-03-25 08:59:00,
2013-03-25 05:04:00,63.6,57.0,29.61,NW,315,1.5,1.5,79,0.00,,---,0.00,VWS V14.00,2013-03-25 09:04:00,
2013-03-25 05:09:00,63.6,57.0,29.61,NW,315,1.5,1.5,79,0.00,,---,0.00,VWS V14.00,2013-03-25 09:09:00,
2013-03-25 05:14:00,63.5,56.5,29.61,NNW,338,0.0,0.0,78,0.00,,---,0.00,VWS V14.00,2013-03-25 09:14:00,
2013-03-25 05:19:00,63.3,56.3,29.61,NNW,338,0.0,0.0,78,0.00,,---,0.00,VWS V14.00,2013-03-25 09:19:00,
2013-03-25 05:24:00,63.3,56.3,29.61,NW,315,0.0,0.0,78,0.00,,---,0.00,VWS V14.00,2013-03-25 09:24:00,
2013-03-25 05:29:00,63.1,56.1,29.61,North,0,4.0,4.0,78,0.00,,---,0.00,VWS V14.00,2013-03-25 09:29:00,
2013-03-25 05:34:00,63.1,56.1,29.62,NW,315,0.0,0.0,78,0.00,,---,0.00,VWS V14.00,2013-03-25 09:34:00,
2013-03-25 05:39:00,63.1,55.8,29.62,WNW,292,2.9,2.9,77,0.00,,---,0.00,VWS V14.00,2013-03-25 09:39:00,
2013-03-25 05:44:00,62.9,55.6,29.62,WNW,292,1.7,1.7,77,0.00,,---,0.00,VWS V14.00,2013-03-25 09:44:00,
2013-03-25 05:49:00,62.9,55.6,29.62,NW,315,0.0,0.0,77,0.00,,---,0.00,VWS V14.00,2013-03-25 09:49:00,
2013-03-25 05:54:00,62.7,55.4,29.63,WNW,292,0.0,0.0,77,0.00,,---,0.00,VWS V14.00,2013-03-25 09:54:00,
2013-03-25 05:59:00,62.7,55.4,29.62,WNW,292,1.5,1.5,77,0.00,,---,0.00,VWS V14.00,2013-03-25 09:59:00,
2013-03-25 06:04:00,62.4,55.5,29.63,WNW,292,1.7,1.7,78,0.00,,---,0.00,VWS V14.00,2013-03-25 10:04:00,
2013-03-25 06:09:00,62.4,55.5,29.63,NNW,338,0.0,0.0,78,0.00,,---,0.00,VWS V14.00,2013-03-25 10:09:00,
2013-03-25 06:14:00,62.4,55.5,29.64,NNW,338,0.0,0.0,78,0.00,,---,0.00,VWS V14.00,2013-03-25 10:14:00,
2013-03-25 06:19:00,62.2,54.9,29.64,NNW,338,1.5,1.5,77,0.00,,---,0.00,VWS V14.00,2013-03-25 10:19:00,
2013-03-25 06:24:00,62.2,54.9,29.64,NNW,338,0.0,0.0,77,0.00,,---,0.00,VWS V14.00,2013-03-25 10:24:00,
2013-03-25 06:29:00,62.2,54.9,29.64,NW,315,2.2,2.2,77,0.00,,---,0.00,VWS V14.00,2013-03-25 10:29:00,
2013-03-25 06:34:00,62.0,54.0,29.64,NNW,338,1.5,1.5,75,0.00,,---,0.00,VWS V14.00,2013-03-25 10:34:00,
2013-03-25 06:39:00,61.8,53.8,29.64,NNW,338,1.1,1.1,75,0.00,,---,0.00,VWS V14.00,2013-03-25 10:39:00,
2013-03-25 06:44:00,61.8,53.8,29.64,NW,315,0.0,0.0,75,0.00,,---,0.00,VWS V14.00,2013-03-25 10:44:00,
2013-03-25 06:49:00,61.5,53.5,29.64,NW,315,2.0,2.0,75,0.00,,---,0.00,VWS V14.00,2013-03-25 10:49:00,
2013-03-25 06:54:00,61.5,53.5,29.65,NNW,338,0.4,0.4,75,0.00,,---,0.00,VWS V14.00,2013-03-25 10:54:00,
2013-03-25 06:59:00,61.3,53.3,29.65,NNW,338,2.6,2.6,75,0.00,,---,0.00,VWS V14.00,2013-03-25 10:59:00,
2013-03-25 07:04:00,61.3,53.7,29.65,North,0,0.0,0.0,76,0.00,,---,0.00,VWS V14.00,2013-03-25 11:04:00,
2013-03-25 07:09:00,61.1,53.1,29.66,North,0,0.0,0.0,75,0.00,,---,0.00,VWS V14.00,2013-03-25 11:09:00,
2013-03-25 07:14:00,60.9,52.6,29.66,NNW,338,3.8,3.8,74,0.00,,---,0.00,VWS V14.00,2013-03-25 11:14:00,
2013-03-25 07:19:00,60.9,52.2,29.66,NNW,338,2.0,2.0,73,0.00,,---,0.00,VWS V14.00,2013-03-25 11:19:00,
2013-03-25 07:24:00,60.8,51.7,29.66,North,0,2.2,2.2,72,0.00,,---,0.00,VWS V14.00,2013-03-25 11:24:00,
2013-03-25 07:29:00,60.6,51.2,29.66,NE,45,0.0,0.0,71,0.00,,---,0.00,VWS V14.00,2013-03-25 11:29:00,
2013-03-25 07:34:00,60.6,50.8,29.67,North,0,0.0,0.0,70,0.00,,---,0.00,VWS V14.00,2013-03-25 11:34:00,
2013-03-25 07:39:00,60.4,51.0,29.67,NNE,22,0.0,0.0,71,0.00,,---,0.00,VWS V14.00,2013-03-25 11:39:00,
2013-03-25 07:44:00,60.4,50.6,29.67,North,0,0.0,0.0,70,0.00,,---,0.00,VWS V14.00,2013-03-25 11:44:00,
2013-03-25 07:49:00,60.0,50.2,29.68,North,0,0.0,0.0,70,0.00,,---,0.00,VWS V14.00,2013-03-25 11:49:00,
2013-03-25 07:54:00,60.0,0.0,29.68,NNW,338,2.9,2.9,0,0.00,,---,0.00,VWS V14.00,2013-03-25 11:54:00,
2013-03-25 07:59:00,60.0,50.2,29.68,NNW,338,0.0,0.0,70,0.00,,---,0.00,VWS V14.00,2013-03-25 11:59:00,
2013-03-25 08:04:00,60.2,50.4,29.68,NNW,338,3.3,3.3,70,0.00,,---,0.00,VWS V14.00,2013-03-25 12:04:00,
2013-03-25 08:09:00,60.2,50.0,29.69,North,0,1.5,1.5,69,0.00,,---,0.00,VWS V14.00,2013-03-25 12:09:00,
2013-03-25 08:14:00,60.4,50.2,29.69,NW,315,6.9,6.9,69,0.00,,---,0.00,VWS V14.00,2013-03-25 12:14:00,
2013-03-25 08:19:00,60.4,49.8,29.69,NNW,338,0.8,0.8,68,0.00,,---,0.00,VWS V14.00,2013-03-25 12:19:00,
2013-03-25 08:24:00,60.4,49.8,29.69,NNW,338,2.6,2.6,68,0.00,,---,0.00,VWS V14.00,2013-03-25 12:24:00,
2013-03-25 08:29:00,60.6,50.0,29.70,NNW,338,0.0,0.0,68,0.00,,---,0.00,VWS V14.00,2013-03-25 12:29:00,
2013-03-25 08:34:00,60.9,50.7,29.70,North,0,2.6,2.6,69,0.00,,---,0.00,VWS V14.00,2013-03-25 12:34:00,
2013-03-25 08:39:00,60.9,50.7,29.70,North,0,0.0,0.0,69,0.00,,---,0.00,VWS V14.00,2013-03-25 12:39:00,
2013-03-25 08:44:00,61.1,50.9,29.70,NNE,22,0.6,0.6,69,0.00,,---,0.00,VWS V14.00,2013-03-25 12:44:00,
2013-03-25 08:49:00,61.3,50.7,29.71,North,0,2.2,2.2,68,0.00,,---,0.00,VWS V14.00,2013-03-25 12:49:00,
2013-03-25 08:54:00,61.3,50.3,29.71,North,0,1.3,1.3,67,0.00,,---,0.00,VWS V14.00,2013-03-25 12:54:00,
2013-03-25 08:59:00,61.5,50.5,29.71,NNW,338,4.6,4.6,67,0.00,,---,0.00,VWS V14.00,2013-03-25 12:59:00,
2013-03-25 09:04:00,61.5,49.6,29.72,North,0,0.0,0.0,65,0.00,,---,0.00,VWS V14.00,2013-03-25 13:04:00,
2013-03-25 09:09:00,61.5,49.2,29.72,NW,315,0.0,0.0,64,0.00,,---,0.00,VWS V14.00,2013-03-25 13:09:00,
2013-03-25 09:14:00,61.5,48.4,29.72,NNW,338,2.6,2.6,62,0.00,,---,0.00,VWS V14.00,2013-03-25 13:14:00,
2013-03-25 09:19:00,61.8,48.2,29.73,North,0,4.0,4.0,61,0.00,,---,0.00,VWS V14.00,2013-03-25 13:19:00,
2013-03-25 09:24:00,61.5,47.1,29.73,North,0,3.1,3.1,59,0.00,,---,0.00,VWS V14.00,2013-03-25 13:24:00,
2013-03-25 09:29:00,61.5,47.5,29.73,NNW,338,4.0,4.0,60,0.00,,---,0.00,VWS V14.00,2013-03-25 13:29:00,
2013-03-25 09:34:00,61.5,48.4,29.73,North,0,3.5,3.5,62,0.00,,---,0.00,VWS V14.00,2013-03-25 13:34:00,
2013-03-25 09:39:00,61.7,48.6,29.73,NNW,338,2.9,2.9,62,0.00,,---,0.00,VWS V14.00,2013-03-25 13:39:00,
2013-03-25 09:44:00,62.0,49.3,29.74,East,90,3.3,3.3,63,0.00,,---,0.00,VWS V14.00,2013-03-25 13:44:00,
2013-03-25 09:49:00,62.2,49.0,29.74,WNW,292,1.5,1.5,62,0.00,,---,0.00,VWS V14.00,2013-03-25 13:49:00,
2013-03-25 09:54:00,62.4,48.8,29.75,North,0,5.3,5.3,61,0.00,,---,0.00,VWS V14.00,2013-03-25 13:54:00,
2013-03-25 09:59:00,62.2,48.6,29.75,NNW,338,2.6,2.6,61,0.00,,---,0.00,VWS V14.00,2013-03-25 13:59:00,
2013-03-25 10:04:00,62.0,49.3,29.75,NNW,338,5.5,5.5,63,0.00,,---,0.00,VWS V14.00,2013-03-25 14:04:00,
2013-03-25 10:09:00,62.2,49.9,29.75,ENE,68,6.4,6.4,64,0.00,,---,0.00,VWS V14.00,2013-03-25 14:09:00,
2013-03-25 10:14:00,62.2,49.5,29.76,NW,315,0.0,0.0,63,0.00,,---,0.00,VWS V14.00,2013-03-25 14:14:00,
2013-03-25 10:19:00,62.4,49.2,29.76,NW,315,2.4,2.4,62,0.00,,---,0.00,VWS V14.00,2013-03-25 14:19:00,
2013-03-25 10:24:00,62.4,47.5,29.76,North,0,4.4,4.4,58,0.00,,---,0.00,VWS V14.00,2013-03-25 14:24:00,
2013-03-25 10:29:00,62.4,46.0,29.77,North,0,2.2,2.2,55,0.00,,---,0.00,VWS V14.00,2013-03-25 14:29:00,
2013-03-25 10:34:00,62.4,46.5,29.77,NNE,22,4.4,4.4,56,0.00,,---,0.00,VWS V14.00,2013-03-25 14:34:00,
2013-03-25 10:39:00,62.2,46.8,29.78,North,0,2.9,2.9,57,0.00,,---,0.00,VWS V14.00,2013-03-25 14:39:00,
2013-03-25 10:44:00,62.0,47.1,29.77,NNW,338,5.8,5.8,58,0.00,,---,0.00,VWS V14.00,2013-03-25 14:44:00,
2013-03-25 10:49:00,61.8,47.8,29.78,NNE,22,2.0,2.0,60,0.00,,---,0.00,VWS V14.00,2013-03-25 14:49:00,
2013-03-25 10:54:00,62.2,48.2,29.78,WNW,292,2.4,2.4,60,0.00,,---,0.00,VWS V14.00,2013-03-25 14:54:00,
2013-03-25 10:59:00,62.4,48.8,29.78,North,0,1.5,1.5,61,0.00,,---,0.00,VWS V14.00,2013-03-25 14:59:00,
2013-03-25 11:04:00,62.7,49.1,29.79,WNW,292,1.3,1.3,61,0.00,,---,0.00,VWS V14.00,2013-03-25 15:04:00,
2013-03-25 11:09:00,63.1,48.6,29.79,NNW,338,4.4,4.4,59,0.00,,---,0.00,VWS V14.00,2013-03-25 15:09:00,
2013-03-25 11:14:00,63.1,48.6,29.79,NNW,338,4.0,4.0,59,0.00,,---,0.00,VWS V14.00,2013-03-25 15:14:00,
2013-03-25 11:19:00,62.9,48.4,29.79,NNW,338,4.2,4.2,59,0.00,,---,0.00,VWS V14.00,2013-03-25 15:19:00,
2013-03-25 11:24:00,63.1,48.6,29.79,North,0,5.5,5.5,59,0.00,,---,0.00,VWS V14.00,2013-03-25 15:24:00,
2013-03-25 11:29:00,63.3,48.7,29.79,NNE,22,4.6,4.6,59,0.00,,---,0.00,VWS V14.00,2013-03-25 15:29:00,
2013-03-25 11:34:00,63.5,48.5,29.79,NNE,22,2.0,2.0,58,0.00,,---,0.00,VWS V14.00,2013-03-25 15:34:00,
2013-03-25 11:39:00,63.6,48.6,29.79,NE,45,0.0,0.0,58,0.00,,---,0.00,VWS V14.00,2013-03-25 15:39:00,
2013-03-25 11:44:00,64.2,49.1,29.79,North,0,4.0,4.0,58,0.00,,---,0.00,VWS V14.00,2013-03-25 15:44:00,
2013-03-25 11:49:00,64.2,48.2,29.79,NE,45,0.0,0.0,56,0.00,,---,0.00,VWS V14.00,2013-03-25 15:49:00,
2013-03-25 11:54:00,64.2,47.7,29.79,NNW,338,2.0,2.0,55,0.00,,---,0.00,VWS V14.00,2013-03-25 15:54:00,
2013-03-25 11:59:00,64.4,47.9,29.79,NNW,338,2.4,2.4,55,0.00,,---,0.00,VWS V14.00,2013-03-25 15:59:00,
2013-03-25 12:04:00,64.5,48.0,29.79,North,0,1.7,1.7,55,0.00,,---,0.00,VWS V14.00,2013-03-25 16:04:00,
2013-03-25 12:09:00,64.5,48.0,29.79,North,0,1.7,1.7,55,0.00,,---,0.00,VWS V14.00,2013-03-25 16:09:00,
2013-03-25 12:14:00,64.7,47.2,29.79,NNW,338,5.5,5.5,53,0.00,,---,0.00,VWS V14.00,2013-03-25 16:14:00,
2013-03-25 12:19:00,64.5,46.5,29.78,North,0,1.7,1.7,52,0.00,,---,0.00,VWS V14.00,2013-03-25 16:19:00,
2013-03-25 12:24:00,64.9,46.4,29.79,North,0,3.1,3.1,51,0.00,,---,0.00,VWS V14.00,2013-03-25 16:24:00,
2013-03-25 12:29:00,65.4,45.8,29.79,North,0,1.5,1.5,49,0.00,,---,0.00,VWS V14.00,2013-03-25 16:29:00,
2013-03-25 12:34:00,65.8,47.2,29.79,NNW,338,4.2,4.2,51,0.00,,---,0.00,VWS V14.00,2013-03-25 16:34:00,
2013-03-25 12:39:00,66.2,46.0,29.79,NW,315,3.8,3.8,48,0.00,,---,0.00,VWS V14.00,2013-03-25 16:39:00,
2013-03-25 12:44:00,66.0,45.8,29.79,NNE,22,1.5,1.5,48,0.00,,---,0.00,VWS V14.00,2013-03-25 16:44:00,
2013-03-25 12:49:00,66.0,45.8,29.80,NNW,338,3.5,3.5,48,0.00,,---,0.00,VWS V14.00,2013-03-25 16:49:00,
2013-03-25 12:54:00,66.2,46.0,29.79,NNW,338,3.1,3.1,48,0.00,,---,0.00,VWS V14.00,2013-03-25 16:54:00,
2013-03-25 12:59:00,66.0,45.2,29.79,NNW,338,1.1,1.1,47,0.00,,---,0.00,VWS V14.00,2013-03-25 16:59:00,
2013-03-25 13:04:00,66.2,46.0,29.79,NNW,338,3.1,3.1,48,0.00,,---,0.00,VWS V14.00,2013-03-25 17:04:00,
2013-03-25 13:09:00,66.0,45.8,29.79,NNW,338,3.8,3.8,48,0.00,,---,0.00,VWS V14.00,2013-03-25 17:09:00,
2013-03-25 13:14:00,66.0,45.8,29.78,North,0,4.4,4.4,48,0.00,,---,0.00,VWS V14.00,2013-03-25 17:14:00,
2013-03-25 13:19:00,66.0,45.8,29.78,North,0,4.0,4.0,48,0.00,,---,0.00,VWS V14.00,2013-03-25 17:19:00,
2013-03-25 13:24:00,66.0,45.2,29.79,NNW,338,4.6,4.6,47,0.00,,---,0.00,VWS V14.00,2013-03-25 17:24:00,
2013-03-25 13:29:00,66.0,46.3,29.78,NNW,338,2.2,2.2,49,0.00,,---,0.00,VWS V14.00,2013-03-25 17:29:00,
2013-03-25 13:34:00,66.3,46.6,29.78,NW,315,3.3,3.3,49,0.00,,---,0.00,VWS V14.00,2013-03-25 17:34:00,
2013-03-25 13:39:00,66.2,46.0,29.78,NNE,22,7.3,7.3,48,0.00,,---,0.00,VWS V14.00,2013-03-25 17:39:00,
2013-03-25 13:44:00,66.3,46.6,29.77,North,0,1.1,1.1,49,0.00,,---,0.00,VWS V14.00,2013-03-25 17:44:00,
2013-03-25 13:49:00,66.7,46.4,29.78,NW,315,2.9,2.9,48,0.00,,---,0.00,VWS V14.00,2013-03-25 17:49:00,
2013-03-25 13:54:00,66.3,44.9,29.78,NNE,22,0.0,0.0,46,0.00,,---,0.00,VWS V14.00,2013-03-25 17:54:00,
2013-03-25 13:59:00,66.2,45.4,29.77,NE,45,7.3,7.3,47,0.00,,---,0.00,VWS V14.00,2013-03-25 17:59:00,
2013-03-25 14:04:00,66.5,45.1,29.77,NNW,338,2.9,2.9,46,0.00,,---,0.00,VWS V14.00,2013-03-25 18:04:00,
2013-03-25 14:09:00,66.0,45.2,29.77,NW,315,2.0,2.0,47,0.00,,---,0.00,VWS V14.00,2013-03-25 18:09:00,
2013-03-25 14:14:00,65.8,43.9,29.77,NW,315,3.5,3.5,45,0.00,,---,0.00,VWS V14.00,2013-03-25 18:14:00,
2013-03-25 14:19:00,65.4,44.1,29.77,NNW,338,2.0,2.0,46,0.00,,---,0.00,VWS V14.00,2013-03-25 18:19:00,
2013-03-25 14:24:00,65.3,42.8,29.77,NNW,338,6.4,6.4,44,0.00,,---,0.00,VWS V14.00,2013-03-25 18:24:00,
2013-03-25 14:29:00,64.5,43.8,29.77,NNW,338,5.3,5.3,47,0.00,,---,0.00,VWS V14.00,2013-03-25 18:29:00,
2013-03-25 14:34:00,64.5,42.1,29.77,NE,45,4.4,4.4,44,0.00,,---,0.00,VWS V14.00,2013-03-25 18:34:00,
2013-03-25 14:39:00,64.5,41.5,29.77,NNW,338,2.2,2.2,43,0.00,,---,0.00,VWS V14.00,2013-03-25 18:39:00,
2013-03-25 14:44:00,64.5,42.1,29.77,NW,315,4.2,4.2,44,0.00,,---,0.00,VWS V14.00,2013-03-25 18:44:00,
2013-03-25 14:49:00,64.7,42.9,29.77,NNE,22,4.9,4.9,45,0.00,,---,0.00,VWS V14.00,2013-03-25 18:49:00,
2013-03-25 14:54:00,64.9,41.9,29.77,North,0,3.3,3.3,43,0.00,,---,0.00,VWS V14.00,2013-03-25 18:54:00,
2013-03-25 14:59:00,64.7,41.1,29.77,North,0,3.8,3.8,42,0.00,,---,0.00,VWS V14.00,2013-03-25 18:59:00,
2013-03-25 15:04:00,64.5,40.9,29.77,North,0,2.2,2.2,42,0.00,,---,0.00,VWS V14.00,2013-03-25 19:04:00,
2013-03-25 15:09:00,64.4,41.4,29.77,NNW,338,7.6,7.6,43,0.00,,---,0.00,VWS V14.00,2013-03-25 19:09:00,
2013-03-25 15:14:00,64.5,40.9,29.77,WNW,292,5.1,5.1,42,0.00,,---,0.00,VWS V14.00,2013-03-25 19:14:00,
2013-03-25 15:19:00,64.2,40.0,29.77,North,0,5.8,5.8,41,0.00,,---,0.00,VWS V14.00,2013-03-25 19:19:00,
2013-03-25 15:24:00,64.2,40.7,29.77,NE,45,3.3,3.3,42,0.00,,---,0.00,VWS V14.00,2013-03-25 19:24:00,
2013-03-25 15:29:00,64.4,40.8,29.77,NW,315,4.2,4.2,42,0.00,,---,0.00,VWS V14.00,2013-03-25 19:29:00,
2013-03-25 15:34:00,64.2,40.7,29.77,North,0,4.4,4.4,42,0.00,,---,0.00,VWS V14.00,2013-03-25 19:34:00,
2013-03-25 15:39:00,64.2,40.7,29.77,ENE,68,5.8,5.8,42,0.00,,---,0.00,VWS V14.00,2013-03-25 19:39:00,
2013-03-25 15:44:00,64.5,41.5,29.76,NNW,338,1.1,1.1,43,0.00,,---,0.00,VWS V14.00,2013-03-25 19:44:00,
2013-03-25 15:49:00,64.4,40.2,29.76,WNW,292,4.9,4.9,41,0.00,,---,0.00,VWS V14.00,2013-03-25 19:49:00,
2013-03-25 15:54:00,64.2,39.4,29.77,ENE,68,1.5,1.5,40,0.00,,---,0.00,VWS V14.00,2013-03-25 19:54:00,
2013-03-25 15:59:00,63.8,38.4,29.77,NNW,338,2.0,2.0,39,0.00,,---,0.00,VWS V14.00,2013-03-25 19:59:00,
2013-03-25 16:04:00,64.0,37.9,29.77,NNE,22,2.4,2.4,38,0.00,,---,0.00,VWS V14.00,2013-03-25 20:04:00,
2013-03-25 16:09:00,63.8,39.0,29.76,NNW,338,3.5,3.5,40,0.00,,---,0.00,VWS V14.00,2013-03-25 20:09:00,
2013-03-25 16:14:00,63.6,38.9,29.76,NNW,338,2.9,2.9,40,0.00,,---,0.00,VWS V14.00,2013-03-25 20:14:00,
2013-03-25 16:19:00,64.0,39.2,29.76,North,0,4.6,4.6,40,0.00,,---,0.00,VWS V14.00,2013-03-25 20:19:00,
2013-03-25 16:24:00,64.0,39.2,29.76,NNE,22,2.6,2.6,40,0.00,,---,0.00,VWS V14.00,2013-03-25 20:24:00,
2013-03-25 16:29:00,64.0,39.8,29.77,NNW,338,0.0,0.0,41,0.00,,---,0.00,VWS V14.00,2013-03-25 20:29:00,
2013-03-25 16:34:00,64.0,39.2,29.76,NNE,22,2.9,2.9,40,0.00,,---,0.00,VWS V14.00,2013-03-25 20:34:00,
2013-03-25 16:39:00,64.2,39.4,29.76,NW,315,2.6,2.6,40,0.00,,---,0.00,VWS V14.00,2013-03-25 20:39:00,
2013-03-25 16:44:00,64.2,39.4,29.76,NW,315,3.5,3.5,40,0.00,,---,0.00,VWS V14.00,2013-03-25 20:44:00,
2013-03-25 16:49:00,64.2,39.4,29.76,ENE,68,2.2,2.2,40,0.00,,---,0.00,VWS V14.00,2013-03-25 20:49:00,
2013-03-25 16:54:00,64.2,39.4,29.77,NNW,338,1.7,1.7,40,0.00,,---,0.00,VWS V14.00,2013-03-25 20:54:00,
2013-03-25 16:59:00,64.2,39.4,29.76,ENE,68,2.0,2.0,40,0.00,,---,0.00,VWS V14.00,2013-03-25 20:59:00,
2013-03-25 17:04:00,64.2,38.8,29.76,North,0,2.6,2.6,39,0.00,,---,0.00,VWS V14.00,2013-03-25 21:04:00,
2013-03-25 17:09:00,64.0,39.2,29.76,NNW,338,0.0,0.0,40,0.00,,---,0.00,VWS V14.00,2013-03-25 21:09:00,
2013-03-25 17:14:00,64.2,40.0,29.76,NW,315,1.7,1.7,41,0.00,,---,0.00,VWS V14.00,2013-03-25 21:14:00,
2013-03-25 17:19:00,64.4,40.2,29.76,North,0,0.0,0.0,41,0.00,,---,0.00,VWS V14.00,2013-03-25 21:19:00,
2013-03-25 17:24:00,64.0,38.6,29.76,NW,315,2.4,2.4,39,0.00,,---,0.00,VWS V14.00,2013-03-25 21:24:00,
2013-03-25 17:29:00,63.6,38.9,29.76,NNE,22,0.0,0.0,40,0.00,,---,0.00,VWS V14.00,2013-03-25 21:29:00,
2013-03-25 17:34:00,63.6,39.5,29.76,North,0,1.5,1.5,41,0.00,,---,0.00,VWS V14.00,2013-03-25 21:34:00,
2013-03-25 17:39:00,63.5,38.8,29.77,North,0,1.3,1.3,40,0.00,,---,0.00,VWS V14.00,2013-03-25 21:39:00,
2013-03-25 17:44:00,63.5,38.8,29.76,NNE,22,0.0,0.0,40,0.00,,---,0.00,VWS V14.00,2013-03-25 21:44:00,
2013-03-25 17:49:00,63.3,39.2,29.77,NNW,338,2.4,2.4,41,0.00,,---,0.00,VWS V14.00,2013-03-25 21:49:00,
2013-03-25 17:54:00,63.3,40.5,29.77,NNW,338,0.2,0.2,43,0.00,,---,0.00,VWS V14.00,2013-03-25 21:54:00,
2013-03-25 17:59:00,63.1,40.3,29.77,NNW,338,2.6,2.6,43,0.00,,---,0.00,VWS V14.00,2013-03-25 21:59:00,
2013-03-25 18:04:00,62.9,40.7,29.78,North,0,2.4,2.4,44,0.00,,---,0.00,VWS V14.00,2013-03-25 22:04:00,
2013-03-25 18:09:00,62.7,40.5,29.78,West,270,4.0,4.0,44,0.00,,---,0.00,VWS V14.00,2013-03-25 22:09:00,
2013-03-25 18:14:00,62.7,40.5,29.78,NNW,338,0.0,0.0,44,0.00,,---,0.00,VWS V14.00,2013-03-25 22:14:00,
2013-03-25 18:19:00,62.4,40.8,29.78,NW,315,2.9,2.9,45,0.00,,---,0.00,VWS V14.00,2013-03-25 22:19:00,
2013-03-25 18:24:00,62.2,40.6,29.78,NNW,338,6.0,6.0,45,0.00,,---,0.00,VWS V14.00,2013-03-25 22:24:00,
2013-03-25 18:29:00,61.8,40.8,29.79,North,0,0.8,0.8,46,0.00,,---,0.00,VWS V14.00,2013-03-25 22:29:00,
2013-03-25 18:34:00,61.5,40.5,29.79,North,0,2.6,2.6,46,0.00,,---,0.00,VWS V14.00,2013-03-25 22:34:00,
2013-03-25 18:39:00,61.1,40.7,29.79,NNW,338,3.1,3.1,47,0.00,,---,0.00,VWS V14.00,2013-03-25 22:39:00,
2013-03-25 18:44:00,61.1,40.7,29.79,North,0,0.0,0.0,47,0.00,,---,0.00,VWS V14.00,2013-03-25 22:44:00,
2013-03-25 18:49:00,61.1,41.3,29.80,NNW,338,2.6,2.6,48,0.00,,---,0.00,VWS V14.00,2013-03-25 22:49:00,
2013-03-25 18:53:00,60.6,40.8,29.80,WNW,292,3.1,3.1,48,0.00,,---,0.00,VWS V14.00,2013-03-25 22:53:00,
2013-03-25 18:58:00,60.6,40.8,29.80,WNW,292,6.4,6.4,48,0.00,,---,0.00,VWS V14.00,2013-03-25 22:58:00,
2013-03-25 19:03:00,60.4,41.2,29.80,NW,315,1.1,1.1,49,0.00,,---,0.00,VWS V14.00,2013-03-25 23:03:00,
2013-03-25 19:08:00,59.9,40.7,29.80,NNW,338,0.0,0.0,49,0.00,,---,0.00,VWS V14.00,2013-03-25 23:08:00,
2013-03-25 19:13:00,59.9,41.2,29.80,NNW,338,2.0,2.0,50,0.00,,---,0.00,VWS V14.00,2013-03-25 23:13:00,
2013-03-25 19:18:00,59.5,40.9,29.81,WNW,292,3.8,3.8,50,0.00,,---,0.00,VWS V14.00,2013-03-25 23:18:00,
2013-03-25 19:23:00,59.1,41.0,29.81,NNW,338,0.0,0.0,51,0.00,,---,0.00,VWS V14.00,2013-03-25 23:23:00,
2013-03-25 19:28:00,58.8,40.7,29.80,NNW,338,0.0,0.0,51,0.00,,---,0.00,VWS V14.00,2013-03-25 23:28:00,
2013-03-25 19:33:00,58.8,40.7,29.80,NNW,338,0.0,0.0,51,0.00,,---,0.00,VWS V14.00,2013-03-25 23:33:00,
2013-03-25 19:38:00,58.4,40.9,29.80,WNW,292,0.8,0.8,52,0.00,,---,0.00,VWS V14.00,2013-03-25 23:38:00,
2013-03-25 19:43:00,58.2,41.2,29.81,North,0,0.0,0.0,53,0.00,,---,0.00,VWS V14.00,2013-03-25 23:43:00,
2013-03-25 19:48:00,58.1,41.1,29.81,NW,315,0.0,0.0,53,0.00,,---,0.00,VWS V14.00,2013-03-25 23:48:00,
2013-03-25 19:53:00,57.9,41.4,29.81,WNW,292,0.0,0.0,54,0.00,,---,0.00,VWS V14.00,2013-03-25 23:53:00,
2013-03-25 19:58:00,57.7,41.2,29.81,NNW,338,0.0,0.0,54,0.00,,---,0.00,VWS V14.00,2013-03-25 23:58:00,
2013-03-25 20:03:00,57.3,41.3,29.82,WNW,292,0.0,0.0,55,0.00,,---,0.00,VWS V14.00,2013-03-26 00:03:00,
2013-03-25 20:08:00,57.3,41.3,29.82,NW,315,0.0,0.0,55,0.00,,---,0.00,VWS V14.00,2013-03-26 00:08:00,
2013-03-25 20:13:00,57.3,41.3,29.82,NW,315,0.0,0.0,55,0.00,,---,0.00,VWS V14.00,2013-03-26 00:13:00,
2013-03-25 20:18:00,57.2,41.2,29.81,NW,315,0.0,0.0,55,0.00,,---,0.00,VWS V14.00,2013-03-26 00:18:00,
2013-03-25 20:23:00,57.0,41.5,29.82,WNW,292,0.0,0.0,56,0.00,,---,0.00,VWS V14.00,2013-03-26 00:23:00,
2013-03-25 20:28:00,57.0,41.5,29.82,WNW,292,0.0,0.0,56,0.00,,---,0.00,VWS V14.00,2013-03-26 00:28:00,
2013-03-25 20:33:00,57.0,41.9,29.82,WNW,292,0.0,0.0,57,0.00,,---,0.00,VWS V14.00,2013-03-26 00:33:00,
2013-03-25 20:38:00,56.8,41.8,29.82,WNW,292,0.0,0.0,57,0.00,,---,0.00,VWS V14.00,2013-03-26 00:38:00,
2013-03-25 20:43:00,56.8,41.8,29.82,WNW,292,0.0,0.0,57,0.00,,---,0.00,VWS V14.00,2013-03-26 00:43:00,
2013-03-25 20:48:00,56.6,42.0,29.83,WNW,292,0.0,0.0,58,0.00,,---,0.00,VWS V14.00,2013-03-26 00:48:00,
2013-03-25 20:53:00,56.6,42.0,29.83,WNW,292,0.0,0.0,58,0.00,,---,0.00,VWS V14.00,2013-03-26 00:53:00,
2013-03-25 20:58:00,56.4,41.8,29.84,WNW,292,0.0,0.0,58,0.00,,---,0.00,VWS V14.00,2013-03-26 00:58:00,
2013-03-25 21:03:00,56.4,41.8,29.84,WNW,292,0.0,0.0,58,0.00,,---,0.00,VWS V14.00,2013-03-26 01:03:00,
2013-03-25 21:08:00,56.4,41.8,29.85,WNW,292,0.0,0.0,58,0.00,,---,0.00,VWS V14.00,2013-03-26 01:08:00,
2013-03-25 21:13:00,56.4,42.3,29.84,WNW,292,0.0,0.0,59,0.00,,---,0.00,VWS V14.00,2013-03-26 01:13:00,
2013-03-25 21:18:00,56.4,42.3,29.85,WNW,292,0.0,0.0,59,0.00,,---,0.00,VWS V14.00,2013-03-26 01:18:00,
2013-03-25 21:23:00,56.4,42.3,29.85,WNW,292,0.0,0.0,59,0.00,,---,0.00,VWS V14.00,2013-03-26 01:23:00,
2013-03-25 21:28:00,56.4,42.3,29.85,WNW,292,0.0,0.0,59,0.00,,---,0.00,VWS V14.00,2013-03-26 01:28:00,
2013-03-25 21:33:00,56.3,42.2,29.85,WNW,292,0.0,0.0,59,0.00,,---,0.00,VWS V14.00,2013-03-26 01:33:00,
2013-03-25 21:38:00,56.3,42.6,29.85,WNW,292,0.0,0.0,60,0.00,,---,0.00,VWS V14.00,2013-03-26 01:38:00,
2013-03-25 21:43:00,56.1,42.4,29.86,WNW,292,0.0,0.0,60,0.00,,---,0.00,VWS V14.00,2013-03-26 01:43:00,
2013-03-25 21:48:00,56.1,42.4,29.86,WNW,292,0.0,0.0,60,0.00,,---,0.00,VWS V14.00,2013-03-26 01:48:00,
2013-03-25 21:53:00,56.1,42.8,29.86,WNW,292,0.0,0.0,61,0.00,,---,0.00,VWS V14.00,2013-03-26 01:53:00,
2013-03-25 21:58:00,55.9,42.7,29.86,WNW,292,0.0,0.0,61,0.00,,---,0.00,VWS V14.00,2013-03-26 01:58:00,
2013-03-25 22:03:00,55.9,42.7,29.86,WNW,292,0.0,0.0,61,0.00,,---,0.00,VWS V14.00,2013-03-26 02:03:00,
2013-03-25 22:08:00,55.9,42.7,29.86,WNW,292,0.0,0.0,61,0.00,,---,0.00,VWS V14.00,2013-03-26 02:08:00,
2013-03-25 22:13:00,55.9,43.1,29.87,WNW,292,0.0,0.0,62,0.00,,---,0.00,VWS V14.00,2013-03-26 02:13:00,
2013-03-25 22:18:00,55.9,43.1,29.87,WNW,292,0.0,0.0,62,0.00,,---,0.00,VWS V14.00,2013-03-26 02:18:00,
2013-03-25 22:23:00,55.9,43.1,29.87,WNW,292,0.0,0.0,62,0.00,,---,0.00,VWS V14.00,2013-03-26 02:23:00,
2013-03-25 22:28:00,55.9,43.5,29.87,WNW,292,0.0,0.0,63,0.00,,---,0.00,VWS V14.00,2013-03-26 02:28:00,
2013-03-25 22:33:00,55.9,43.5,29.87,WNW,292,0.0,0.0,63,0.00,,---,0.00,VWS V14.00,2013-03-26 02:33:00,
2013-03-25 22:38:00,55.9,43.5,29.87,WNW,292,0.0,0.0,63,0.00,,---,0.00,VWS V14.00,2013-03-26 02:38:00,
2013-03-25 22:43:00,55.7,43.3,29.87,WNW,292,0.0,0.0,63,0.00,,---,0.00,VWS V14.00,2013-03-26 02:43:00,
2013-03-25 22:48:00,55.5,43.1,29.87,WNW,292,0.0,0.0,63,0.00,,---,0.00,VWS V14.00,2013-03-26 02:48:00,
2013-03-25 22:53:00,55.5,43.1,29.87,WNW,292,0.0,0.0,63,0.00,,---,0.00,VWS V14.00,2013-03-26 02:53:00,
2013-03-25 22:58:00,55.5,43.5,29.87,WNW,292,0.0,0.0,64,0.00,,---,0.00,VWS V14.00,2013-03-26 02:58:00,
2013-03-25 23:03:00,55.5,43.5,29.87,WNW,292,0.0,0.0,64,0.00,,---,0.00,VWS V14.00,2013-03-26 03:03:00,
2013-03-25 23:08:00,55.7,44.1,29.88,WNW,292,0.0,0.0,65,0.00,,---,0.00,VWS V14.00,2013-03-26 03:08:00,
2013-03-25 23:13:00,55.9,44.3,29.88,WNW,292,0.0,0.0,65,0.00,,---,0.00,VWS V14.00,2013-03-26 03:13:00,
2013-03-25 23:18:00,55.9,44.3,29.87,WNW,292,0.0,0.0,65,0.00,,---,0.00,VWS V14.00,2013-03-26 03:18:00,
2013-03-25 23:23:00,55.9,44.3,29.87,WNW,292,0.0,0.0,65,0.00,,---,0.00,VWS V14.00,2013-03-26 03:23:00,
2013-03-25 23:28:00,55.9,44.3,29.87,WNW,292,0.0,0.0,65,0.00,,---,0.00,VWS V14.00,2013-03-26 03:28:00,
2013-03-25 23:33:00,55.9,44.3,29.87,WNW,292,0.0,0.0,65,0.00,,---,0.00,VWS V14.00,2013-03-26 03:33:00,
2013-03-25 23:38:00,55.9,44.3,29.88,WNW,292,0.0,0.0,65,0.00,,---,0.00,VWS V14.00,2013-03-26 03:38:00,
2013-03-25 23:43:00,55.9,44.7,29.88,WNW,292,0.0,0.0,66,0.00,,---,0.00,VWS V14.00,2013-03-26 03:43:00,
2013-03-25 23:48:00,56.1,44.9,29.88,WNW,292,0.0,0.0,66,0.00,,---,0.00,VWS V14.00,2013-03-26 03:48:00,
2013-03-25 23:53:00,56.3,45.1,29.89,WNW,292,0.0,0.0,66,0.00,,---,0.00,VWS V14.00,2013-03-26 03:53:00,
2013-03-25 23:58:00,56.4,45.2,29.88,WNW,292,0.0,0.0,66,0.00,,---,0.00,VWS V14.00,2013-03-26 03:58:00,